Time;durP1;ratioP1;P1;durP2;ratioP2;P2;SDS_P1;SDS_P2;PMS_P1;PMS_P2;Temp;Humidity;BMP_temperature;BMP_pressure;BME280_temperature;BME280_humidity;BME280_pressure;Samples;Min_cycle;Max_cycle;Signal;HPM_P1;HPM_P2
2021/06/19 00:00:59;;;;;;;23.48;13.25;;;;;;;;;;5072287;28;20028;-61
2021/06/19 00:03:25;;;;;;;23.42;13.88;;;;;;;;;;5072739;28;20031;-61
2021/06/19 00:05:51;;;;;;;22.00;13.55;;;;;;;;;;5091948;28;20031;-62
2021/06/19 00:08:17;;;;;;;24.70;13.55;;;;;;;;;;5101879;23;20134;-63
2021/06/19 00:10:43;;;;;;;21.23;12.93;;;;;;;;;;5072777;28;20024;-64
2021/06/19 00:13:09;;;;;;;21.75;13.32;;;;;;;;;;5073260;28;20113;-63
2021/06/19 00:15:36;;;;;;;26.45;13.25;;;;;;;;;;5072936;28;20480;-63
2021/06/19 00:18:02;;;;;;;25.98;13.82;;;;;;;;;;5100046;28;20396;-62
2021/06/19 00:20:29;;;;;;;22.77;13.07;;;;;;;;;;5111865;28;20035;-62
2021/06/19 00:22:55;;;;;;;20.02;13.15;;;;;;;;;;5112461;28;20404;-63
2021/06/19 00:25:23;;;;;;;20.92;13.15;;;;;;;;;;5115441;28;20047;-64
2021/06/19 00:27:49;;;;;;;21.80;13.20;;;;;;;;;;5096996;28;20029;-62
2021/06/19 00:30:17;;;;;;;21.75;12.95;;;;;;;;;;5097361;28;20040;-63
2021/06/19 00:32:43;;;;;;;22.98;12.43;;;;;;;;;;5097291;28;20080;-63
2021/06/19 00:35:10;;;;;;;24.25;13.15;;;;;;;;;;5097137;28;20148;-62
2021/06/19 00:37:37;;;;;;;23.15;13.02;;;;;;;;;;5115521;28;20103;-62
2021/06/19 00:40:04;;;;;;;23.55;13.20;;;;;;;;;;5115374;28;20064;-64
2021/06/19 00:42:30;;;;;;;24.80;13.18;;;;;;;;;;5097387;28;20031;-60
2021/06/19 00:44:56;;;;;;;23.35;12.35;;;;;;;;;;5115427;28;20020;-62
2021/06/19 00:47:23;;;;;;;25.67;12.98;;;;;;;;;;5115242;28;20027;-63
2021/06/19 00:49:49;;;;;;;23.55;12.65;;;;;;;;;;5096788;28;20027;-62
2021/06/19 00:52:15;;;;;;;25.08;12.57;;;;;;;;;;5115218;28;20027;-63
2021/06/19 00:54:41;;;;;;;23.05;12.48;;;;;;;;;;5096812;28;20035;-62
2021/06/19 00:57:10;;;;;;;22.80;12.90;;;;;;;;;;5096711;28;20398;-63
2021/06/19 00:59:36;;;;;;;22.85;12.35;;;;;;;;;;5115130;28;20027;-64
2021/06/19 01:02:03;;;;;;;25.38;13.73;;;25.70;98.20;;;;;;5114853;28;20034;-63
2021/06/19 01:04:29;;;;;;;22.70;12.50;;;;;;;;;;5096428;28;20016;-61
2021/06/19 01:06:55;;;;;;;26.63;15.18;;;;;;;;;;5096491;28;20097;-63
2021/06/19 01:09:21;;;;;;;22.13;12.68;;;;;;;;;;5096443;28;20035;-62
2021/06/19 01:11:48;;;;;;;24.55;13.10;;;;;;;;;;5114837;28;20081;-64
2021/06/19 01:14:14;;;;;;;22.23;12.45;;;;;;;;;;5114801;28;20022;-62
2021/06/19 01:16:43;;;;;;;24.45;12.80;;;;;;;;;;5114579;28;20020;-64
2021/06/19 01:19:09;;;;;;;21.50;12.63;;;;;;;;;;5114741;28;20109;-62
2021/06/19 01:21:35;;;;;;;24.75;12.98;;;;;;;;;;5114728;28;20015;-63
2021/06/19 01:24:01;;;;;;;23.90;13.90;;;;;;;;;;5115225;28;20474;-63
2021/06/19 01:26:28;;;;;;;22.75;13.02;;;;;;;;;;5114271;28;20023;-63
2021/06/19 01:28:56;;;;;;;25.90;12.88;;;;;;;;;;5114228;28;20026;-62
2021/06/19 01:31:22;;;;;;;23.10;13.52;;;;;;;;;;5096221;28;20483;-63
2021/06/19 01:33:49;;;;;;;25.13;12.88;;;;;;;;;;5096039;28;20027;-62
2021/06/19 01:36:16;;;;;;;22.40;13.27;;;;;;;;;;5094879;28;20026;-62
2021/06/19 01:38:43;;;;;;;22.40;13.07;;;;;;;;;;5113926;28;20441;-64
2021/06/19 01:41:16;;;;;;;24.63;14.60;;;;;;;;;;5114180;28;20112;-62
2021/06/19 01:43:43;;;;;;;21.90;13.70;;;;;;;;;;5114151;28;20024;-63
2021/06/19 01:46:09;;;;;;;22.90;12.70;;;;;;;;;;5095824;28;20096;-59
2021/06/19 01:48:35;;;;;;;27.08;14.18;;;;;;;;;;5114189;28;20032;-63
2021/06/19 01:51:01;;;;;;;26.25;14.45;;;;;;;;;;5095944;28;20024;-63
2021/06/19 01:53:27;;;;;;;23.40;13.20;;;;;;;;;;5113912;28;20034;-63
2021/06/19 01:55:53;;;;;;;29.88;14.05;;;;;;;;;;5113668;28;20110;-64
2021/06/19 01:58:19;;;;;;;23.70;13.77;;;;;;;;;;5095917;28;20122;-61
2021/06/19 02:00:45;;;;;;;24.70;13.13;;;;;;;;;;5095421;28;20028;-63
2021/06/19 02:03:12;;;;;;;24.33;13.00;;;;;;;;;;5095618;28;20020;-63
2021/06/19 02:05:38;;;;;;;25.95;14.05;;;;;;;;;;5113596;28;20424;-62
2021/06/19 02:08:06;;;;;;;20.80;13.02;;;;;;;;;;5113518;28;20031;-62
2021/06/19 02:10:34;;;;;;;27.83;12.48;;;;;;;;;;5113601;28;20030;-63
2021/06/19 02:13:01;;;;;;;22.00;12.45;;;;;;;;;;5113553;28;20035;-63
2021/06/19 02:15:27;;;;;;;25.13;13.35;;;;;;;;;;5113169;28;20526;-62
2021/06/19 02:17:55;;;;;;;22.27;12.55;;;;;;;;;;5113203;28;20342;-62
2021/06/19 02:20:21;;;;;;;21.48;13.32;;;;;;;;;;5113243;28;20051;-63
2021/06/19 02:22:48;;;;;;;23.65;12.88;;;;;;;;;;5095277;28;20391;-59
2021/06/19 02:25:15;;;;;;;23.08;12.65;;;;;;;;;;5113044;28;20031;-65
2021/06/19 02:27:48;;;;;;;22.45;12.75;;;;;;;;;;5113259;28;20090;-62
2021/06/19 02:30:14;;;;;;;20.10;12.48;;;;;;;;;;5094978;28;20072;-63
2021/06/19 02:32:40;;;;;;;19.83;12.52;;;;;;;;;;5095207;28;20034;-63
2021/06/19 02:35:06;;;;;;;22.15;12.70;;;;;;;;;;5112781;28;20107;-64
2021/06/19 02:37:32;;;;;;;21.92;12.40;;;;;;;;;;5112706;28;20497;-62
2021/06/19 02:39:58;;;;;;;22.60;12.95;;;;;;;;;;5094632;28;20027;-63
2021/06/19 02:42:24;;;;;;;21.58;12.05;;;;;;;;;;5094838;28;20574;-62
2021/06/19 02:44:50;;;;;;;22.55;12.68;;;;;;;;;;5112577;28;20035;-60
2021/06/19 02:47:16;;;;;;;24.58;12.15;;;;;;;;;;5094500;28;20111;-62
2021/06/19 02:49:42;;;;;;;23.38;12.52;;;;;;;;;;5112682;28;20493;-63
2021/06/19 02:52:09;;;;;;;22.35;12.48;;;;;;;;;;5094591;28;20076;-63
2021/06/19 02:54:40;;;;;;;25.30;12.52;;;;;;;;;;5112706;28;20513;-62
2021/06/19 02:57:06;;;;;;;24.77;12.65;;;;;;;;;;5112442;28;20027;-63
2021/06/19 02:59:32;;;;;;;27.52;12.85;;;;;;;;;;5094521;28;20473;-64
2021/06/19 03:01:58;;;;;;;23.02;13.60;;;;;;;;;;5094812;28;20050;-61
2021/06/19 03:04:24;;;;;;;25.25;13.13;;;;;;;;;;5094181;28;20015;-60
2021/06/19 03:06:50;;;;;;;20.50;12.43;;;;;;;;;;5112528;28;20356;-62
2021/06/19 03:09:16;;;;;;;22.77;12.75;;;;;;;;;;5112459;28;20145;-62
2021/06/19 03:11:42;;;;;;;19.88;11.55;;;;;;;;;;5112513;28;20531;-60
2021/06/19 03:14:08;;;;;;;19.58;11.68;;;;;;;;;;5112291;28;20087;-64
2021/06/19 03:16:35;;;;;;;19.63;11.05;;;;;;;;;;5094405;28;20103;-63
2021/06/19 03:19:02;;;;;;;22.98;11.38;;;;;;;;;;5112261;28;20132;-61
2021/06/19 03:21:28;;;;;;;21.27;11.07;;;;;;;;;;5112591;28;20024;-59
2021/06/19 03:23:53;;;;;;;19.40;10.80;;;;;;;;;;5094205;28;20016;-62
2021/06/19 03:26:19;;;;;;;21.08;11.52;;;;;;;;;;5094254;28;20114;-61
2021/06/19 03:28:45;;;;;;;20.13;11.38;;;;;;;;;;5112254;28;20421;-61
2021/06/19 03:31:11;;;;;;;21.52;11.75;;;;;;;;;;5094061;28;20027;-61
2021/06/19 03:33:37;;;;;;;19.42;10.57;;;;;;;;;;5112549;28;20080;-60
2021/06/19 03:36:04;;;;;;;19.33;11.50;;;;;;;;;;5093976;28;20062;-61
2021/06/19 03:38:30;;;;;;;20.10;10.85;;;;;;;;;;5093823;28;20080;-62
2021/06/19 03:40:56;;;;;;;22.05;12.07;;;;;;;;;;5112103;28;20015;-62
2021/06/19 03:43:22;;;;;;;21.30;11.50;;;;;;;;;;5094015;28;20016;-61
2021/06/19 03:45:48;;;;;;;22.05;10.50;;;;;;;;;;5093757;28;20460;-62
2021/06/19 03:48:14;;;;;;;22.92;11.27;;;;;;;;;;5093881;28;20028;-62
2021/06/19 03:50:40;;;;;;;20.48;11.05;;;;;;;;;;5112048;28;20023;-62
2021/06/19 03:53:06;;;;;;;18.33;11.10;;;;;;;;;;5112097;28;20063;-60
2021/06/19 03:55:33;;;;;;;19.20;10.15;;;;;;;;;;5093591;28;20020;-61
2021/06/19 03:57:59;;;;;;;19.10;10.00;;;;;;;;;;5093969;28;20057;-62
2021/06/19 04:00:26;;;;;;;21.92;10.15;;;;;;;;;;5097640;28;20019;-63
2021/06/19 04:02:52;;;;;;;19.23;9.50;;;;;;;;;;5116020;28;20055;-60
2021/06/19 04:05:19;;;;;;;18.52;9.23;;;;;;;;;;5097600;28;20050;-60
2021/06/19 04:07:45;;;;;;;18.33;9.73;;;;;;;;;;5115680;28;20032;-61
2021/06/19 04:10:11;;;;;;;17.92;9.77;;;;;;;;;;5097498;28;20023;-61
2021/06/19 04:12:38;;;;;;;18.75;9.38;;;;;;;;;;5115699;28;20035;-62
2021/06/19 04:15:05;;;;;;;18.25;9.18;;;;;;;;;;5115403;28;20028;-63
2021/06/19 04:17:31;;;;;;;17.98;8.73;;;;;;;;;;5097231;28;20024;-62
2021/06/19 04:19:57;;;;;;;17.83;8.70;;;;;;;;;;5115866;28;20024;-61
2021/06/19 04:22:23;;;;;;;16.77;8.98;;;;;;;;;;5115524;28;20027;-63
2021/06/19 04:24:49;;;;;;;17.70;8.80;;;;;;;;;;5115213;28;20020;-61
2021/06/19 04:27:20;;;;;;;17.95;8.57;;;;;;;;;;5115467;28;20023;-62
2021/06/19 04:29:46;;;;;;;22.42;9.45;;;;;;;;;;5115434;28;20020;-61
2021/06/19 04:32:13;;;;;;;16.70;8.77;;;;;;;;;;5115427;28;20392;-62
2021/06/19 04:34:43;;;;;;;18.42;8.63;;;;;;;;;;5096725;28;20023;-62
2021/06/19 04:37:10;;;;;;;16.88;8.18;;;;;;;;;;5096659;28;20036;-63
2021/06/19 04:39:43;;;;;;;17.10;8.75;;;;;;;;;;5115355;28;20122;-60
2021/06/19 04:42:13;;;;;;;20.30;8.70;;;;;;;;;;5097106;28;20110;-59
2021/06/19 04:45:00;;;;;;;17.23;8.45;;;;;;;;;;5115342;28;20047;-62
2021/06/19 04:47:26;;;;;;;17.83;7.78;;;;;;;;;;5114999;28;20031;-62
2021/06/19 04:49:55;;;;;;;17.40;8.20;;;;;;;;;;5115075;28;20028;-62
2021/06/19 04:52:24;;;;;;;16.27;7.90;;;;;;;;;;5114908;28;20020;-62
2021/06/19 04:54:51;;;;;;;16.50;7.30;;;;;;;;;;5096280;28;20495;-63
2021/06/19 04:57:17;;;;;;;16.65;7.43;;;;;;;;;;5096525;28;20023;-60
2021/06/19 04:59:43;;;;;;;15.10;7.43;;;;;;;;;;5096636;28;20027;-61
2021/06/19 05:02:09;;;;;;;16.38;7.10;;;;;;;;;;5114903;28;20140;-61
2021/06/19 05:04:35;;;;;;;15.02;7.20;;;;;;;;;;5114584;28;20051;-62
2021/06/19 05:07:01;;;;;;;16.45;7.25;;;;;;;;;;5114565;28;20027;-61
2021/06/19 05:09:27;;;;;;;14.77;7.28;;;;;;;;;;5113927;28;20031;-61
2021/06/19 05:11:53;;;;;;;18.00;7.47;;;;;;;;;;5114230;28;20057;-60
2021/06/19 05:14:19;;;;;;;16.80;8.02;;;;;;;;;;5096141;28;20114;-60
2021/06/19 05:16:45;;;;;;;19.75;7.25;;;;;;;;;;5096150;28;20043;-60
2021/06/19 05:19:12;;;;;;;15.68;7.10;;;;;;;;;;5114344;28;20020;-62
2021/06/19 05:21:38;;;;;;;19.00;6.95;;;;;;;;;;5114421;28;20024;-63
2021/06/19 05:24:05;;;;;;;14.10;7.05;;;;;;;;;;5095970;28;20399;-60
2021/06/19 05:26:31;;;;;;;14.77;6.70;;;;;;;;;;5114517;28;20048;-63
2021/06/19 05:28:56;;;;;;;14.68;7.22;;;;;;;;;;5114164;28;20135;-62
2021/06/19 05:31:22;;;;;;;15.88;7.10;;;;;;;;;;5095645;28;20027;-62
2021/06/19 05:33:48;;;;;;;18.17;7.50;;;;;;;;;;5095430;28;20072;-62
2021/06/19 05:36:14;;;;;;;14.60;7.03;;;;;;;;;;5114016;28;20047;-61
2021/06/19 05:38:40;;;;;;;16.23;7.22;;;;;;;;;;5114028;28;20415;-61
2021/06/19 05:41:06;;;;;;;15.77;7.38;;;;;;;;;;5096073;28;20019;-62
2021/06/19 05:43:32;;;;;;;15.43;7.85;;;;;;;;;;5114761;28;20020;-60
2021/06/19 05:45:58;;;;;;;16.95;7.93;;;;;;;;;;5113896;28;20026;-59
2021/06/19 05:48:24;;;;;;;15.40;7.50;;;;;;;;;;5095438;28;20395;-62
2021/06/19 05:50:50;;;;;;;16.58;7.53;;;;;;;;;;5113725;28;20023;-59
2021/06/19 05:53:16;;;;;;;17.00;7.82;;;;;;;;;;5113815;28;20023;-61
2021/06/19 05:55:42;;;;;;;16.83;7.45;;;;;;;;;;5095367;28;20028;-62
2021/06/19 05:58:09;;;;;;;14.05;7.47;;;;;;;;;;5113374;28;20027;-62
2021/06/19 06:00:35;;;;;;;16.77;7.60;;;;;;;;;;5113601;28;20544;-60
2021/06/19 06:03:01;;;;;;;15.15;6.95;;;;;;;;;;5113580;28;20035;-59
2021/06/19 06:05:27;;;;;;;15.77;7.13;;;;;;;;;;5095128;28;20027;-61
2021/06/19 06:07:55;;;;;;;13.95;6.05;;;;;;;;;;5096110;28;20035;-62
2021/06/19 06:10:21;;;;;;;13.82;6.25;;;;;;;;;;5113574;28;20098;-62
2021/06/19 06:12:47;;;;;;;13.75;6.35;;;;;;;;;;5113550;28;20058;-62
2021/06/19 06:15:13;;;;;;;14.15;6.70;;;;;;;;;;5112926;28;20020;-60
2021/06/19 06:17:39;;;;;;;14.93;6.72;;;;;;;;;;5112704;28;20501;-61
2021/06/19 06:20:06;;;;;;;13.77;6.25;;;;;;;;;;5094781;28;20114;-62
2021/06/19 06:22:32;;;;;;;14.50;6.63;;;;;;;;;;5112826;28;20027;-60
2021/06/19 06:24:58;;;;;;;15.25;6.45;;;;;;;;;;5094827;28;20023;-61
2021/06/19 06:27:24;;;;;;;15.07;6.55;;;;;;;;;;5113149;28;20494;-62
2021/06/19 06:29:50;;;;;;;14.10;6.38;;;;;;;;;;5113139;28;20035;-61
2021/06/19 06:32:17;;;;;;;12.98;6.15;;;;;;;;;;5112940;28;20024;-62
2021/06/19 06:34:43;;;;;;;14.25;6.35;;;;;;;;;;5112510;28;20035;-61
2021/06/19 06:37:09;;;;;;;13.68;6.60;;;;;;;;;;5092631;28;20031;-62
2021/06/19 06:39:35;;;;;;;13.50;6.70;;;;;;;;;;5083519;28;20027;-62
2021/06/19 06:42:01;;;;;;;16.60;7.40;;;;;;;;;;5092301;28;20024;-63
2021/06/19 06:44:28;;;;;;;14.45;6.88;;;;;;;;;;5074007;28;20371;-60
2021/06/19 06:46:54;;;;;;;14.13;6.40;;;;;;;;;;5110991;28;20142;-62
2021/06/19 06:49:20;;;;;;;14.88;6.82;;;;;;;;;;5112717;28;20020;-63
2021/06/19 06:51:46;;;;;;;14.82;6.28;;;;;;;;;;5112632;28;20489;-62
2021/06/19 06:54:12;;;;;;;13.52;6.57;;;;;;;;;;5112350;28;20031;-61
2021/06/19 06:56:38;;;;;;;13.73;6.70;;;;;;;;;;5112515;28;20046;-59
2021/06/19 06:59:04;;;;;;;16.70;6.68;;;;;;;;;;5112465;28;20505;-59
2021/06/19 07:01:30;;;;;;;13.25;6.32;;;;;;;;;;5112569;28;20099;-60
2021/06/19 07:03:58;;;;;;;13.68;6.15;;;;;;;;;;5112554;28;20514;-61
2021/06/19 07:06:24;;;;;;;15.75;6.57;;;;;;;;;;5093925;28;20028;-60
2021/06/19 07:08:50;;;;;;;16.90;6.70;;;;;;;;;;5112153;28;20122;-59
2021/06/19 07:11:16;;;;;;;15.38;6.80;;;;;;;;;;5094344;28;20024;-62
2021/06/19 07:13:42;;;;;;;14.45;6.90;;;;;;;;;;5094102;28;20133;-61
2021/06/19 07:16:08;;;;;;;15.85;6.47;;;;;;;;;;5093776;28;20031;-60
2021/06/19 07:18:35;;;;;;;14.18;6.43;;;;;;;;;;5093943;28;20024;-60
2021/06/19 07:21:01;;;;;;;17.52;6.65;;;;;;;;;;5093894;28;20030;-59
2021/06/19 07:23:29;;;;;;;13.77;6.38;;;;;;;;;;5112348;28;20054;-57
2021/06/19 07:25:55;;;;;;;16.00;7.00;;;;;;;;;;5112066;28;20042;-60
2021/06/19 07:28:22;;;;;;;16.60;6.93;;;;;;;;;;5112039;28;20038;-61
2021/06/19 07:30:48;;;;;;;13.85;6.60;;;;;;;;;;5112380;28;20068;-61
2021/06/19 07:33:14;;;;;;;14.68;6.82;;;;;;;;;;5094658;28;20398;-61
2021/06/19 07:35:40;;;;;;;16.13;7.80;;;;;;;;;;5116046;28;20141;-61
2021/06/19 07:38:06;;;;;;;15.07;7.32;;;;;;;;;;5116348;28;20475;-60
2021/06/19 07:40:33;;;;;;;16.33;7.55;;;;;;;;;;5116094;28;20101;-62
2021/06/19 07:43:00;;;;;;;14.75;7.38;;;;;;;;;;5116330;28;20095;-62
2021/06/19 07:45:26;;;;;;;16.75;8.00;;;;;;;;;;5115862;28;20110;-60
2021/06/19 07:47:52;;;;;;;15.52;7.15;;;;;;;;;;5115984;28;20040;-60
2021/06/19 07:50:18;;;;;;;14.75;7.47;;;;;;;;;;5115854;28;20027;-59
2021/06/19 07:52:44;;;;;;;14.10;7.25;;;;;;;;;;5097780;28;20495;-60
2021/06/19 07:55:11;;;;;;;15.57;7.90;;;;;;;;;;5115701;28;20030;-64
2021/06/19 07:57:37;;;;;;;16.25;7.95;;;;;;;;;;5115519;28;20088;-60
2021/06/19 08:00:04;;;;;;;15.30;8.43;;;;;;;;;;5097442;28;20020;-62
2021/06/19 08:02:30;;;;;;;15.75;8.30;;;;;;;;;;5115770;28;20116;-62
2021/06/19 08:04:56;;;;;;;15.60;7.35;;;;;;;;;;5115696;28;20031;-61
2021/06/19 08:07:22;;;;;;;16.20;7.50;;;;;;;;;;5097175;28;20028;-61
2021/06/19 08:09:48;;;;;;;16.10;7.60;;;;;;;;;;5115666;28;20035;-62
2021/06/19 08:12:14;;;;;;;15.05;7.65;;;;;;;;;;5115676;28;20081;-58
2021/06/19 08:14:40;;;;;;;15.20;7.65;;;;;;;;;;5115342;28;20435;-55
2021/06/19 08:17:17;;;;;;;15.80;7.78;;;;;;;;;;5115330;28;20024;-56
2021/06/19 08:19:45;;;;;;;15.63;7.35;;;;;;;;;;5097305;28;20020;-57
2021/06/19 08:22:11;;;;;;;15.50;7.93;;;;;;;;;;5097130;28;20027;-55
2021/06/19 08:24:37;;;;;;;14.40;7.85;;;;;;;;;;5096926;28;20055;-53
2021/06/19 08:27:04;;;;;;;16.13;7.63;;;;;;;;;;5115441;28;20051;-55
2021/06/19 08:29:30;;;;;;;15.32;7.40;;;;;;;;;;5115337;28;20027;-56
2021/06/19 08:31:56;;;;;;;16.05;7.80;;;;;;;;;;5115321;28;20095;-56
2021/06/19 08:34:21;;;;;;;14.65;7.20;;;;;;;;;;5096628;28;20164;-56
2021/06/19 08:36:47;;;;;;;17.25;7.80;;;;;;;;;;5114641;28;20024;-57
2021/06/19 08:39:13;;;;;;;15.02;7.95;;;;;;;;;;5096261;28;20023;-52
2021/06/19 08:41:42;;;;;;;15.05;7.35;;;;;;;;;;5115317;28;20103;-55
2021/06/19 08:44:10;;;;;;;15.30;7.78;;;;;;;;;;5114559;28;20112;-52
2021/06/19 08:46:36;;;;;;;15.20;7.53;;;;;;;;;;5114918;28;20024;-52
2021/06/19 08:49:02;;;;;;;14.60;7.78;;;;;;;;;;5114730;28;20032;-53
2021/06/19 08:51:28;;;;;;;20.13;8.95;;;;;;;;;;5114923;28;20019;-46
2021/06/19 08:53:55;;;;;;;15.65;9.60;;;;;;;;;;5114710;28;20590;-54
2021/06/19 08:56:23;;;;;;;16.67;9.18;;;;;;;;;;5114673;28;20051;-51
2021/06/19 08:58:49;;;;;;;18.35;8.77;;;;;;;;;;5114573;28;20023;-52
2021/06/19 09:01:15;;;;;;;14.70;8.80;;;;;;;;;;5114668;28;20024;-47
2021/06/19 09:03:41;;;;;;;16.08;9.38;;;;;;;;;;5096259;28;20464;-51
2021/06/19 09:06:16;;;;;;;16.85;8.70;;;;;;;;;;5114565;28;20387;-53
2021/06/19 09:09:21;;;;;;;16.88;9.73;;;;;;;;;;5114574;28;20032;-49
2021/06/19 09:11:49;;;;;;;15.68;9.50;;;;;;;;;;5051398;28;20090;-50
2021/06/19 09:14:19;;;;;;;14.80;9.07;;;;;;;;;;5051361;28;20025;-51
2021/06/19 09:16:55;;;;;;;15.65;9.05;;;;;;;;;;5083472;28;20133;-52
2021/06/19 09:19:24;;;;;;;15.18;8.60;;;;;;;;;;5095765;28;20028;-49
2021/06/19 09:21:49;;;;;;;;;;;;;;;;;;5114715;28;20024;-58
2021/06/19 09:24:35;;;;;;;17.58;9.70;;;;;;;;;;5113964;28;19910;-52
2021/06/19 09:27:01;;;;;;;14.55;8.75;;;;;;;;;;5113940;28;20035;-52
2021/06/19 09:29:29;;;;;;;15.70;9.02;;;;;;;;;;5113690;28;20038;-52
2021/06/19 09:31:55;;;;;;;15.15;9.40;;;;;;;;;;5113863;28;20493;-51
2021/06/19 09:34:25;;;;;;;15.00;9.18;;;;;;;;;;5113563;28;20023;-53
2021/06/19 09:36:53;;;;;;;14.45;8.77;;;;;;;;;;5113863;28;20510;-54
2021/06/19 09:39:24;;;;;;;15.75;9.25;;;;;;;;;;5095570;28;20023;-49
2021/06/19 09:41:53;;;;;;;15.30;9.70;;;23.50;99.90;;;;;;5113855;28;20069;-49
2021/06/19 09:44:38;;;;;;;16.02;9.77;;;26.10;99.90;;;;;;5095465;28;20106;-49
2021/06/19 09:47:05;;;;;;;16.38;9.73;;;25.80;99.90;;;;;;5095389;28;20020;-49
2021/06/19 09:49:38;;;;;;;15.65;9.63;;;25.90;99.90;;;;;;5095995;28;20475;-48
2021/06/19 09:52:04;;;;;;;15.40;10.10;;;26.00;99.90;;;;;;5114065;28;20031;-49
2021/06/19 09:54:30;;;;;;;16.98;10.18;;;26.00;99.90;;;;;;5095111;28;20106;-48
2021/06/19 09:57:00;;;;;;;16.95;9.93;;;26.00;99.90;;;;;;5094859;28;20019;-53
2021/06/19 09:59:38;;;;;;;16.17;10.68;;;26.10;99.90;;;;;;5113467;28;20437;-51
2021/06/19 10:02:19;;;;;;;16.70;10.40;;;26.30;99.90;;;;;;5113203;28;20023;-51
2021/06/19 10:04:52;;;;;;;16.45;10.68;;;26.20;99.90;;;;;;5113460;28;20507;-52
2021/06/19 10:07:19;;;;;;;17.20;11.13;;;26.30;99.90;;;;;;5113139;28;20519;-49
2021/06/19 10:09:53;;;;;;;16.95;11.57;;;26.50;99.90;;;;;;5113048;28;20032;-52
2021/06/19 10:12:27;;;;;;;15.50;11.82;;;26.40;99.90;;;;;;5113151;28;20012;-50
2021/06/19 10:14:54;;;;;;;16.63;12.18;;;26.20;99.90;;;;;;5113077;28;20058;-48
2021/06/19 10:17:25;;;;;;;21.15;10.77;;;26.10;99.90;;;;;;5112867;28;20020;-51
2021/06/19 10:19:54;;;;;;;16.40;10.50;;;26.30;99.90;;;;;;5113173;28;20016;-53
2021/06/19 10:22:25;;;;;;;16.48;10.13;;;26.40;99.90;;;;;;5095454;28;20051;-54
2021/06/19 10:24:52;;;;;;;16.05;11.27;;;26.60;99.90;;;;;;5094444;28;20069;-52
2021/06/19 10:27:18;;;;;;;16.75;10.90;;;27.00;99.90;;;;;;5094550;28;20024;-50
2021/06/19 10:29:49;;;;;;;15.90;11.10;;;26.90;99.90;;;;;;5094883;28;20031;-50
2021/06/19 10:32:37;;;;;;;16.13;11.38;;;26.80;99.90;;;;;;5112597;28;20399;-52
2021/06/19 10:35:04;;;;;;;15.65;11.40;;;26.70;99.90;;;;;;5112022;28;20027;-52
2021/06/19 10:37:31;;;;;;;16.83;10.55;;;26.90;99.90;;;;;;5113074;28;20028;-50
2021/06/19 10:39:57;;;;;;;15.45;11.25;;;27.00;99.90;;;;;;5112805;28;20030;-53
2021/06/19 10:42:33;;;;;;;16.35;10.75;;;27.00;99.90;;;;;;5112882;28;20398;-52
2021/06/19 10:44:59;;;;;;;17.05;11.50;;;;;;;;;;5094481;28;20020;-51
2021/06/19 10:47:29;;;;;;;15.25;10.77;;;;;;;;;;5093996;28;20050;-51
2021/06/19 10:49:56;;;;;;;16.02;11.23;;;;;;;;;;5094292;28;20020;-50
2021/06/19 10:52:26;;;;;;;16.27;10.88;;;;;;;;;;5112631;28;20057;-51
2021/06/19 10:55:11;;;;;;;15.50;10.77;;;;;;;;;;5112239;28;20064;-48
2021/06/19 10:57:48;;;;;;;16.38;10.68;;;;;;;;;;5093964;28;20398;-53
2021/06/19 11:00:28;;;;;;;15.43;10.50;;;;;;;;;;5112242;28;20027;-53
2021/06/19 11:02:55;;;;;;;15.85;10.88;;;;;;;;;;5112076;28;20023;-51
2021/06/19 11:05:39;;;;;;;16.92;10.65;;;;;;;;;;5111843;28;20360;-54
2021/06/19 11:08:05;;;;;;;16.05;11.23;;;;;;;;;;5093374;28;20035;-56
2021/06/19 11:10:52;;;;;;;16.40;10.93;;;27.20;99.90;;;;;;5094145;28;20046;-52
2021/06/19 11:13:27;;;;;;;15.53;10.70;;;27.90;98.70;;;;;;5112420;28;20107;-52
2021/06/19 11:15:53;;;;;;;15.60;10.40;;;27.80;99.00;;;;;;5094004;28;20025;-53
2021/06/19 11:18:47;;;;;;;15.40;10.25;;;28.30;98.60;;;;;;5112327;28;20023;-52
2021/06/19 11:21:15;;;;;;;14.90;10.10;;;28.70;98.00;;;;;;5112414;28;20099;-56
2021/06/19 11:24:00;;;;;;;15.73;11.00;;;;;;;;;;5112441;28;20026;-51
2021/06/19 11:26:59;;;;;;;15.75;10.45;;;29.60;97.10;;;;;;5093386;28;20080;-52
2021/06/19 11:29:41;;;;;;;15.13;10.32;;;30.70;95.80;;;;;;5111994;28;20046;-54
2021/06/19 11:32:32;;;;;;;16.52;10.75;;;30.90;94.50;;;;;;5112054;28;20024;-54
2021/06/19 11:35:03;;;;;;;16.90;10.90;;;;;;;;;;4756883;28;10000177;-53
2021/06/19 11:37:47;;;;;;;15.40;11.20;;;;;;;;;;5108081;28;20039;-53
2021/06/19 11:40:25;;;;;;;15.00;11.30;;;;;;;;;;5090235;28;20050;-55
2021/06/19 11:42:51;;;;;;;15.20;11.52;;;;;;;;;;5090493;28;20031;-51
2021/06/19 11:45:17;;;;;;;17.00;11.93;;;;;;;;;;5108426;28;20024;-54
2021/06/19 11:47:44;;;;;;;15.98;12.07;;;;;;;;;;5107840;28;20118;-57
2021/06/19 11:50:10;;;;;;;16.58;11.90;;;31.10;94.30;;;;;;5084186;28;20026;-54
2021/06/19 11:52:35;;;;;;;16.08;12.00;;;33.80;89.20;;;;;;5089972;28;20076;-56
2021/06/19 11:55:01;;;;;;;15.10;11.73;;;32.90;88.40;;;;;;5090064;28;20032;-51
2021/06/19 11:57:29;;;;;;;15.88;11.95;;;32.90;89.00;;;;;;5089948;28;20436;-54
2021/06/19 12:00:07;;;;;;;15.70;11.90;;;33.40;89.50;;;;;;5108372;28;20103;-51
2021/06/19 12:02:33;;;;;;;15.95;11.80;;;;;;;;;;5090471;28;20027;-52
2021/06/19 12:05:09;;;;;;;17.95;12.30;;;;;;;;;;5108395;28;20110;-52
2021/06/19 12:07:35;;;;;;;16.77;12.15;;;34.30;87.30;;;;;;5132494;22;20495;-62
2021/06/19 12:10:01;;;;;;;15.57;11.52;;;;;;;;;;5064192;28;20044;-61
2021/06/19 12:12:26;;;;;;;16.00;11.93;;;35.60;83.20;;;;;;5081543;28;20490;-64
2021/06/19 12:14:52;;;;;;;15.40;11.90;;;;;;;;;;5066890;28;20056;-62
2021/06/19 12:17:18;;;;;;;16.25;11.60;;;34.60;81.40;;;;;;5084911;28;20157;-57
2021/06/19 12:19:44;;;;;;;16.02;11.50;;;35.30;78.70;;;;;;5086654;28;20472;-62
2021/06/19 12:22:11;;;;;;;15.32;11.18;;;35.40;78.40;;;;;;5073278;28;20104;-62
2021/06/19 12:24:45;;;;;;;15.90;11.90;;;35.00;77.80;;;;;;5073199;28;20031;-62
2021/06/19 12:27:21;;;;;;;15.10;11.30;;;35.10;77.60;;;;;;5072831;28;20500;-61
2021/06/19 12:29:56;;;;;;;16.73;10.93;;;36.70;80.10;;;;;;4720560;28;9999923;-60
2021/06/19 12:32:42;;;;;;;15.05;11.40;;;36.50;74.40;;;;;;5068494;28;20798;-62
2021/06/19 12:35:12;;;;;;;15.18;11.25;;;;;;;;;;5058968;28;20017;-62
2021/06/19 12:37:43;;;;;;;15.93;11.70;;;;;;;;;;5058648;28;20463;-62
2021/06/19 12:40:13;;;;;;;16.08;11.50;;;36.50;72.70;;;;;;5057064;28;20506;-62
2021/06/19 12:42:59;;;;;;;15.73;12.10;;;35.40;73.30;;;;;;5059207;28;20021;-61
2021/06/19 12:45:35;;;;;;;15.30;11.98;;;34.80;73.50;;;;;;5058609;28;20497;-64
2021/06/19 12:48:07;;;;;;;16.08;11.70;;;35.00;73.90;;;;;;5061081;28;20119;-61
2021/06/19 12:50:32;;;;;;;15.18;11.73;;;35.40;73.30;;;;;;5060186;28;20039;-62
2021/06/19 12:53:07;;;;;;;16.40;13.07;;;35.50;73.40;;;;;;5060583;28;20029;-62
2021/06/19 12:55:37;;;;;;;15.68;12.07;;;37.00;72.70;;;;;;5059733;28;20489;-61
2021/06/19 12:58:11;;;;;;;15.40;11.85;;;37.80;70.60;;;;;;5058110;28;20127;-61
2021/06/19 13:00:45;;;;;;;16.73;12.05;;;37.00;70.50;;;;;;5058370;28;20771;-62
2021/06/19 13:03:17;;;;;;;15.60;11.52;;;36.70;70.10;;;;;;5059592;28;20028;-62
2021/06/19 13:05:49;;;;;;;15.43;11.88;;;36.50;69.60;;;;;;5058228;28;20021;-61
2021/06/19 13:08:16;;;;;;;16.40;11.70;;;35.70;70.90;;;;;;5056935;28;20041;-61
2021/06/19 13:10:43;;;;;;;15.95;12.50;;;36.30;69.40;;;;;;5056257;28;20128;-61
2021/06/19 13:13:09;;;;;;;16.33;12.40;;;37.00;68.90;;;;;;5058909;28;20226;-59
2021/06/19 13:15:35;;;;;;;16.55;12.55;;;35.90;69.10;;;;;;5059465;28;20578;-61
2021/06/19 13:18:14;;;;;;;15.82;12.30;;;35.60;68.50;;;;;;5057963;28;20055;-62
2021/06/19 13:20:41;;;;;;;15.45;12.05;;;35.30;69.30;;;;;;5057791;28;20025;-61
2021/06/19 13:23:12;;;;;;;16.98;11.80;;;35.40;68.30;;;;;;5057397;28;20021;-59
2021/06/19 13:25:50;;;;;;;16.20;12.07;;;35.00;69.30;;;;;;5059978;28;20017;-59
2021/06/19 13:28:33;;;;;;;16.35;11.95;;;35.50;68.40;;;;;;5059660;28;20519;-58
2021/06/19 13:31:08;;;;;;;17.98;12.05;;;34.90;68.60;;;;;;5057392;28;20025;-62
2021/06/19 13:33:34;;;;;;;15.70;12.18;;;34.90;68.40;;;;;;5057507;28;20170;-60
2021/06/19 13:36:00;;;;;;;16.85;12.10;;;36.10;68.40;;;;;;5055631;28;20047;-61
2021/06/19 13:38:26;;;;;;;15.73;12.40;;;35.70;67.60;;;;;;5048661;28;20477;-60
2021/06/19 13:40:51;;;;;;;15.43;11.93;;;34.60;67.00;;;;;;5049255;28;20114;-61
2021/06/19 13:43:17;;;;;;;16.35;11.90;;;34.80;67.80;;;;;;5049288;28;20017;-60
2021/06/19 13:45:42;;;;;;;16.25;12.02;;;35.40;67.30;;;;;;5047418;28;20040;-61
2021/06/19 13:48:08;;;;;;;16.52;12.50;;;35.40;66.80;;;;;;5048792;28;20044;-61
2021/06/19 13:50:33;;;;;;;17.20;12.45;;;33.80;65.90;;;;;;5047697;28;20416;-61
2021/06/19 13:53:05;;;;;;;16.20;12.50;;;33.00;67.40;;;;;;5048526;28;20021;-60
2021/06/19 13:55:31;;;;;;;17.02;12.82;;;33.10;67.20;;;;;;5048352;28;20036;-60
2021/06/19 13:57:56;;;;;;;15.20;11.80;;;33.00;68.10;;;;;;5048511;28;20530;-61
2021/06/19 14:00:22;;;;;;;17.20;12.10;;;;;;;;;;5047670;28;20048;-60